To NAV CANADA Home Page Login to a new session Search on AWWS site Feedback and Comments Disclaimer Vers la page française équivalente Tips FAQ What's new on the site To the Forecasts and Observations / NOTAM section To "File a Flight Plan" website Publications and other links Update of the User's profile FIC Telephone Numbers My Weather Data Folder Route Weather Data Regional Weather Data Local Weather Data To the Forecasts and Observations / NOTAM section
Request Generated 08/26/2016 at 23:22:19 UTC . Weather information available at that time is displayed.

METAR/TAF

KITCHENER/WATERLOO/ON    (show WxCam)

METAR CYKF 262300Z AUTO 31008KT 9SM CLR 24/14 A3011 RMK SLP195
DENSITY ALT 2100FT=
METAR CYKF 262200Z AUTO 26010KT 240V300 9SM CLR 25/13 A3010 RMK
SLP191 DENSITY ALT 2200FT=
METAR CYKF 262100Z AUTO 28012G17KT 9SM CLR 26/13 A3010 RMK SLP191
DENSITY ALT 2300FT=

TAF CYKF 261938Z 2620/2704 28012KT P6SM SKC
RMK FCST BASED ON AUTO OBS. NXT FCST BY 270200Z=
Your time UTC time
Weather data provided by Environment Canada and NAV CANADA